sensor_id;sensor_type;location;lat;lon;timestamp;pressure;altitude;pressure_sealevel;temperature;humidity
70758;BME280;59316;52.964;7.102;2023-02-21T00:01:19;101672.22;;;11.21;nan
70758;BME280;59316;52.964;7.102;2023-02-21T00:06:21;101657.75;;;11.13;nan
70758;BME280;59316;52.964;7.102;2023-02-21T00:11:24;101659.13;;;11.21;nan
70758;BME280;59316;52.964;7.102;2023-02-21T00:16:27;101664.53;;;11.17;nan
70758;BME280;59316;52.964;7.102;2023-02-21T00:21:30;101655.97;;;11.14;nan
70758;BME280;59316;52.964;7.102;2023-02-21T00:26:33;101658.13;;;11.06;nan
70758;BME280;59316;52.964;7.102;2023-02-21T00:31:35;101661.38;;;11.11;nan
70758;BME280;59316;52.964;7.102;2023-02-21T00:36:38;101665.50;;;11.15;nan
70758;BME280;59316;52.964;7.102;2023-02-21T00:41:41;101662.34;;;11.08;nan
70758;BME280;59316;52.964;7.102;2023-02-21T00:46:44;101672.81;;;11.08;nan
70758;BME280;59316;52.964;7.102;2023-02-21T00:51:46;101675.16;;;11.14;nan
70758;BME280;59316;52.964;7.102;2023-02-21T00:56:49;101667.31;;;11.14;nan
70758;BME280;59316;52.964;7.102;2023-02-21T01:01:52;101660.06;;;11.20;nan
70758;BME280;59316;52.964;7.102;2023-02-21T01:06:54;101659.19;;;11.19;nan
70758;BME280;59316;52.964;7.102;2023-02-21T01:11:57;101653.03;;;11.20;nan
70758;BME280;59316;52.964;7.102;2023-02-21T01:17:00;101647.81;;;11.20;nan
70758;BME280;59316;52.964;7.102;2023-02-21T01:22:14;101641.03;;;11.16;nan
70758;BME280;59316;52.964;7.102;2023-02-21T01:27:17;101657.88;;;11.10;nan
70758;BME280;59316;52.964;7.102;2023-02-21T01:32:22;101658.19;;;11.22;nan
70758;BME280;59316;52.964;7.102;2023-02-21T01:37:25;101658.38;;;11.18;nan
70758;BME280;59316;52.964;7.102;2023-02-21T01:42:28;101656.44;;;11.22;nan
70758;BME280;59316;52.964;7.102;2023-02-21T01:47:31;101666.81;;;11.06;nan
70758;BME280;59316;52.964;7.102;2023-02-21T01:52:34;101657.03;;;11.10;nan
70758;BME280;59316;52.964;7.102;2023-02-21T01:57:37;101655.75;;;11.18;nan
70758;BME280;59316;52.964;7.102;2023-02-21T02:07:59;101674.91;;;11.19;nan
70758;BME280;59316;52.964;7.102;2023-02-21T02:18:17;101674.06;;;11.18;nan
70758;BME280;59316;52.964;7.102;2023-02-21T02:34:47;101669.75;;;11.17;nan
70758;BME280;59316;52.964;7.102;2023-02-21T02:45:17;101676.44;;;11.06;nan
70758;BME280;59316;52.964;7.102;2023-02-21T02:50:28;101671.25;;;10.87;nan
70758;BME280;59316;52.964;7.102;2023-02-21T03:00:45;101679.47;;;10.79;nan
70758;BME280;59316;52.964;7.102;2023-02-21T03:11:20;101669.47;;;10.87;nan
70758;BME280;59316;52.964;7.102;2023-02-21T03:16:35;101677.19;;;10.90;nan
70758;BME280;59316;52.964;7.102;2023-02-21T03:26:50;101693.66;;;10.92;nan
70758;BME280;59316;52.964;7.102;2023-02-21T03:32:19;101688.94;;;10.99;nan
70758;BME280;59316;52.964;7.102;2023-02-21T03:37:46;101697.50;;;11.02;nan
70758;BME280;59316;52.964;7.102;2023-02-21T03:42:55;101693.97;;;11.04;nan
70758;BME280;59316;52.964;7.102;2023-02-21T03:48:03;101686.22;;;11.02;nan
70758;BME280;59316;52.964;7.102;2023-02-21T03:53:08;101692.34;;;11.01;nan
70758;BME280;59316;52.964;7.102;2023-02-21T03:58:13;101689.81;;;10.99;nan
70758;BME280;59316;52.964;7.102;2023-02-21T04:03:16;101693.16;;;11.03;nan
70758;BME280;59316;52.964;7.102;2023-02-21T04:08:26;101695.91;;;11.00;nan
70758;BME280;59316;52.964;7.102;2023-02-21T04:13:29;101695.69;;;11.05;nan
70758;BME280;59316;52.964;7.102;2023-02-21T04:18:33;101707.22;;;11.00;nan
70758;BME280;59316;52.964;7.102;2023-02-21T04:23:40;101704.31;;;11.07;nan
70758;BME280;59316;52.964;7.102;2023-02-21T04:28:43;101712.81;;;11.12;nan
70758;BME280;59316;52.964;7.102;2023-02-21T04:33:46;101715.06;;;11.20;nan
70758;BME280;59316;52.964;7.102;2023-02-21T04:38:55;101703.09;;;11.14;nan
70758;BME280;59316;52.964;7.102;2023-02-21T04:43:58;101708.69;;;11.06;nan
70758;BME280;59316;52.964;7.102;2023-02-21T04:49:05;101704.09;;;11.11;nan
70758;BME280;59316;52.964;7.102;2023-02-21T04:54:08;101705.88;;;11.11;nan
70758;BME280;59316;52.964;7.102;2023-02-21T04:59:10;101709.31;;;11.11;nan
70758;BME280;59316;52.964;7.102;2023-02-21T05:04:13;101699.75;;;11.10;nan
70758;BME280;59316;52.964;7.102;2023-02-21T05:09:16;101700.75;;;11.08;nan
70758;BME280;59316;52.964;7.102;2023-02-21T05:14:18;101718.09;;;11.10;nan
70758;BME280;59316;52.964;7.102;2023-02-21T05:19:22;101701.53;;;11.10;nan
70758;BME280;59316;52.964;7.102;2023-02-21T05:24:26;101700.63;;;11.11;nan
70758;BME280;59316;52.964;7.102;2023-02-21T05:29:29;101703.94;;;11.14;nan
70758;BME280;59316;52.964;7.102;2023-02-21T05:34:32;101695.94;;;11.17;nan
70758;BME280;59316;52.964;7.102;2023-02-21T05:39:35;101692.78;;;11.11;nan
70758;BME280;59316;52.964;7.102;2023-02-21T05:44:38;101693.59;;;11.11;nan
70758;BME280;59316;52.964;7.102;2023-02-21T05:49:40;101689.66;;;11.02;nan
70758;BME280;59316;52.964;7.102;2023-02-21T05:54:44;101686.66;;;11.10;nan
70758;BME280;59316;52.964;7.102;2023-02-21T05:59:46;101681.81;;;11.02;nan
70758;BME280;59316;52.964;7.102;2023-02-21T06:04:49;101686.41;;;10.97;nan
70758;BME280;59316;52.964;7.102;2023-02-21T06:09:52;101685.41;;;11.00;nan
70758;BME280;59316;52.964;7.102;2023-02-21T06:14:54;101687.84;;;11.05;nan
70758;BME280;59316;52.964;7.102;2023-02-21T06:19:57;101686.91;;;11.06;nan
70758;BME280;59316;52.964;7.102;2023-02-21T06:25:00;101685.41;;;11.00;nan
70758;BME280;59316;52.964;7.102;2023-02-21T06:30:03;101695.41;;;11.11;nan
70758;BME280;59316;52.964;7.102;2023-02-21T06:35:06;101697.84;;;11.14;nan
70758;BME280;59316;52.964;7.102;2023-02-21T06:40:09;101700.13;;;11.02;nan
70758;BME280;59316;52.964;7.102;2023-02-21T06:45:12;101695.59;;;11.06;nan
70758;BME280;59316;52.964;7.102;2023-02-21T06:50:15;101704.31;;;11.07;nan
70758;BME280;59316;52.964;7.102;2023-02-21T06:55:19;101705.88;;;11.11;nan
70758;BME280;59316;52.964;7.102;2023-02-21T07:00:25;101713.47;;;11.15;nan
70758;BME280;59316;52.964;7.102;2023-02-21T07:05:28;101701.47;;;11.11;nan
70758;BME280;59316;52.964;7.102;2023-02-21T07:10:30;101696.31;;;11.10;nan
70758;BME280;59316;52.964;7.102;2023-02-21T07:15:33;101717.34;;;11.08;nan
70758;BME280;59316;52.964;7.102;2023-02-21T07:20:36;101722.28;;;11.14;nan
70758;BME280;59316;52.964;7.102;2023-02-21T07:25:37;101716.66;;;11.22;nan
70758;BME280;59316;52.964;7.102;2023-02-21T07:30:40;101733.66;;;11.13;nan
70758;BME280;59316;52.964;7.102;2023-02-21T07:35:43;101733.22;;;11.23;nan
70758;BME280;59316;52.964;7.102;2023-02-21T07:40:45;101738.28;;;11.08;nan
70758;BME280;59316;52.964;7.102;2023-02-21T07:45:48;101735.91;;;11.21;nan
70758;BME280;59316;52.964;7.102;2023-02-21T07:50:51;101741.69;;;11.28;nan
70758;BME280;59316;52.964;7.102;2023-02-21T07:55:53;101744.75;;;11.18;nan
70758;BME280;59316;52.964;7.102;2023-02-21T08:00:56;101747.00;;;11.26;nan
70758;BME280;59316;52.964;7.102;2023-02-21T08:05:59;101732.84;;;11.30;nan
70758;BME280;59316;52.964;7.102;2023-02-21T08:11:02;101744.81;;;11.36;nan
70758;BME280;59316;52.964;7.102;2023-02-21T08:16:05;101751.22;;;11.48;nan
70758;BME280;59316;52.964;7.102;2023-02-21T08:21:08;101755.00;;;11.60;nan
70758;BME280;59316;52.964;7.102;2023-02-21T08:26:11;101761.31;;;11.56;nan
70758;BME280;59316;52.964;7.102;2023-02-21T08:31:14;101761.22;;;11.57;nan
70758;BME280;59316;52.964;7.102;2023-02-21T08:36:17;101753.00;;;11.65;nan
70758;BME280;59316;52.964;7.102;2023-02-21T08:41:21;101760.34;;;11.76;nan
70758;BME280;59316;52.964;7.102;2023-02-21T08:46:23;101761.56;;;11.86;nan
70758;BME280;59316;52.964;7.102;2023-02-21T08:51:30;101760.59;;;11.87;nan
70758;BME280;59316;52.964;7.102;2023-02-21T08:56:33;101762.63;;;11.99;nan
70758;BME280;59316;52.964;7.102;2023-02-21T09:01:36;101767.63;;;12.04;nan
70758;BME280;59316;52.964;7.102;2023-02-21T09:06:39;101761.41;;;12.07;nan
70758;BME280;59316;52.964;7.102;2023-02-21T09:11:41;101757.75;;;12.09;nan
70758;BME280;59316;52.964;7.102;2023-02-21T09:16:44;101760.97;;;12.32;nan
70758;BME280;59316;52.964;7.102;2023-02-21T09:21:48;101768.97;;;12.29;nan
70758;BME280;59316;52.964;7.102;2023-02-21T09:26:52;101762.00;;;12.12;nan
70758;BME280;59316;52.964;7.102;2023-02-21T09:31:56;101761.59;;;12.20;nan
70758;BME280;59316;52.964;7.102;2023-02-21T09:36:58;101766.75;;;12.21;nan
70758;BME280;59316;52.964;7.102;2023-02-21T09:42:06;101753.16;;;12.30;nan
70758;BME280;59316;52.964;7.102;2023-02-21T09:47:12;101764.28;;;12.36;nan
70758;BME280;59316;52.964;7.102;2023-02-21T09:52:25;101754.66;;;12.36;nan
70758;BME280;59316;52.964;7.102;2023-02-21T09:57:37;101768.75;;;12.33;nan
70758;BME280;59316;52.964;7.102;2023-02-21T10:02:52;101762.47;;;12.54;nan
70758;BME280;59316;52.964;7.102;2023-02-21T10:08:07;101765.88;;;12.56;nan
70758;BME280;59316;52.964;7.102;2023-02-21T10:13:38;101769.00;;;12.46;nan
70758;BME280;59316;52.964;7.102;2023-02-21T10:18:51;101762.44;;;12.38;nan
70758;BME280;59316;52.964;7.102;2023-02-21T10:24:21;101767.59;;;12.39;nan
70758;BME280;59316;52.964;7.102;2023-02-21T10:29:26;101774.25;;;12.62;nan
70758;BME280;59316;52.964;7.102;2023-02-21T10:34:33;101780.22;;;12.48;nan
70758;BME280;59316;52.964;7.102;2023-02-21T10:39:39;101783.06;;;12.61;nan
70758;BME280;59316;52.964;7.102;2023-02-21T10:44:45;101779.22;;;12.85;nan
70758;BME280;59316;52.964;7.102;2023-02-21T10:50:01;101779.03;;;12.88;nan
70758;BME280;59316;52.964;7.102;2023-02-21T10:55:12;101784.97;;;12.91;nan
70758;BME280;59316;52.964;7.102;2023-02-21T11:00:37;101786.75;;;12.91;nan
70758;BME280;59316;52.964;7.102;2023-02-21T11:05:43;101787.41;;;12.94;nan
70758;BME280;59316;52.964;7.102;2023-02-21T11:10:54;101791.16;;;13.06;nan
70758;BME280;59316;52.964;7.102;2023-02-21T11:21:28;101783.03;;;12.95;nan
70758;BME280;59316;52.964;7.102;2023-02-21T11:27:06;101787.78;;;12.88;nan
70758;BME280;59316;52.964;7.102;2023-02-21T11:32:07;101776.91;;;12.94;nan
70758;BME280;59316;52.964;7.102;2023-02-21T11:37:13;101770.16;;;13.06;nan
70758;BME280;59316;52.964;7.102;2023-02-21T11:47:34;101774.56;;;12.90;nan
70758;BME280;59316;52.964;7.102;2023-02-21T12:25:43;101751.94;;;12.87;nan
70758;BME280;59316;52.964;7.102;2023-02-21T12:31:13;101748.22;;;12.91;nan
70758;BME280;59316;52.964;7.102;2023-02-21T12:47:05;101750.22;;;12.54;nan
70758;BME280;59316;52.964;7.102;2023-02-21T12:52:14;101750.72;;;12.61;nan
70758;BME280;59316;52.964;7.102;2023-02-21T12:57:22;101742.91;;;12.43;nan
70758;BME280;59316;52.964;7.102;2023-02-21T13:13:24;101737.75;;;12.42;nan
70758;BME280;59316;52.964;7.102;2023-02-21T13:18:34;101733.50;;;12.39;nan
70758;BME280;59316;52.964;7.102;2023-02-21T13:23:41;101735.41;;;12.53;nan
70758;BME280;59316;52.964;7.102;2023-02-21T13:29:15;101726.09;;;12.47;nan
70758;BME280;59316;52.964;7.102;2023-02-21T13:34:20;101723.31;;;12.67;nan
70758;BME280;59316;52.964;7.102;2023-02-21T13:39:28;101707.81;;;12.94;nan
70758;BME280;59316;52.964;7.102;2023-02-21T13:44:37;101712.56;;;12.71;nan
70758;BME280;59316;52.964;7.102;2023-02-21T14:10:51;101691.28;;;12.60;nan
70758;BME280;59316;52.964;7.102;2023-02-21T14:15:57;101691.13;;;12.47;nan
70758;BME280;59316;52.964;7.102;2023-02-21T14:21:34;101694.78;;;12.60;nan
70758;BME280;59316;52.964;7.102;2023-02-21T14:26:48;101684.94;;;12.48;nan
70758;BME280;59316;52.964;7.102;2023-02-21T14:37:12;101685.19;;;12.43;nan
70758;BME280;59316;52.964;7.102;2023-02-21T15:04:01;101684.94;;;12.14;nan
70758;BME280;59316;52.964;7.102;2023-02-21T15:09:12;101679.63;;;12.16;nan
70758;BME280;59316;52.964;7.102;2023-02-21T15:14:20;101682.47;;;12.11;nan
70758;BME280;59316;52.964;7.102;2023-02-21T15:19:29;101671.13;;;11.95;nan
70758;BME280;59316;52.964;7.102;2023-02-21T15:24:34;101684.59;;;11.87;nan
70758;BME280;59316;52.964;7.102;2023-02-21T15:29:37;101675.59;;;11.75;nan
70758;BME280;59316;52.964;7.102;2023-02-21T15:34:41;101677.00;;;11.65;nan
70758;BME280;59316;52.964;7.102;2023-02-21T15:39:48;101687.97;;;11.73;nan
70758;BME280;59316;52.964;7.102;2023-02-21T15:45:01;101690.50;;;11.75;nan
70758;BME280;59316;52.964;7.102;2023-02-21T16:00:25;101691.97;;;11.45;nan
70758;BME280;59316;52.964;7.102;2023-02-21T16:05:28;101690.97;;;11.48;nan
70758;BME280;59316;52.964;7.102;2023-02-21T16:10:32;101692.44;;;11.36;nan
70758;BME280;59316;52.964;7.102;2023-02-21T16:15:35;101700.13;;;11.39;nan
70758;BME280;59316;52.964;7.102;2023-02-21T16:20:39;101698.59;;;11.35;nan
70758;BME280;59316;52.964;7.102;2023-02-21T16:25:56;101702.19;;;11.32;nan
70758;BME280;59316;52.964;7.102;2023-02-21T16:31:15;101697.34;;;11.25;nan
70758;BME280;59316;52.964;7.102;2023-02-21T16:36:26;101697.41;;;11.23;nan
70758;BME280;59316;52.964;7.102;2023-02-21T16:41:31;101703.78;;;11.17;nan
70758;BME280;59316;52.964;7.102;2023-02-21T16:46:34;101707.41;;;11.15;nan
70758;BME280;59316;52.964;7.102;2023-02-21T16:51:36;101704.09;;;11.11;nan
70758;BME280;59316;52.964;7.102;2023-02-21T16:56:43;101707.25;;;11.18;nan
70758;BME280;59316;52.964;7.102;2023-02-21T17:01:47;101714.00;;;11.05;nan
70758;BME280;59316;52.964;7.102;2023-02-21T17:06:51;101709.75;;;11.02;nan
70758;BME280;59316;52.964;7.102;2023-02-21T17:11:56;101722.22;;;10.97;nan
70758;BME280;59316;52.964;7.102;2023-02-21T17:16:58;101722.31;;;10.95;nan
70758;BME280;59316;52.964;7.102;2023-02-21T17:22:01;101725.91;;;10.93;nan
70758;BME280;59316;52.964;7.102;2023-02-21T17:27:04;101723.44;;;10.90;nan
70758;BME280;59316;52.964;7.102;2023-02-21T17:32:07;101725.13;;;10.91;nan
70758;BME280;59316;52.964;7.102;2023-02-21T17:37:09;101732.06;;;10.92;nan
70758;BME280;59316;52.964;7.102;2023-02-21T17:42:12;101729.81;;;10.84;nan
70758;BME280;59316;52.964;7.102;2023-02-21T17:47:17;101726.63;;;10.77;nan
70758;BME280;59316;52.964;7.102;2023-02-21T17:52:21;101732.97;;;10.72;nan
70758;BME280;59316;52.964;7.102;2023-02-21T17:57:23;101733.06;;;10.70;nan
70758;BME280;59316;52.964;7.102;2023-02-21T18:02:26;101739.19;;;10.69;nan
70758;BME280;59316;52.964;7.102;2023-02-21T18:07:29;101736.78;;;10.64;nan
70758;BME280;59316;52.964;7.102;2023-02-21T18:12:31;101734.16;;;10.64;nan
70758;BME280;59316;52.964;7.102;2023-02-21T18:17:34;101732.53;;;10.62;nan
70758;BME280;59316;52.964;7.102;2023-02-21T18:22:37;101739.72;;;10.58;nan
70758;BME280;59316;52.964;7.102;2023-02-21T18:27:40;101738.66;;;10.62;nan
70758;BME280;59316;52.964;7.102;2023-02-21T18:32:44;101736.50;;;10.51;nan
70758;BME280;59316;52.964;7.102;2023-02-21T18:37:47;101733.50;;;10.40;nan
70758;BME280;59316;52.964;7.102;2023-02-21T18:42:49;101734.94;;;10.47;nan
70758;BME280;59316;52.964;7.102;2023-02-21T18:47:52;101730.28;;;10.54;nan
70758;BME280;59316;52.964;7.102;2023-02-21T18:52:55;101726.13;;;10.50;nan
70758;BME280;59316;52.964;7.102;2023-02-21T18:57:58;101726.34;;;10.44;nan
70758;BME280;59316;52.964;7.102;2023-02-21T19:03:02;101724.72;;;10.41;nan
70758;BME280;59316;52.964;7.102;2023-02-21T19:08:06;101727.22;;;10.44;nan
70758;BME280;59316;52.964;7.102;2023-02-21T19:13:09;101729.78;;;10.46;nan
70758;BME280;59316;52.964;7.102;2023-02-21T19:18:11;101716.03;;;10.41;nan
70758;BME280;59316;52.964;7.102;2023-02-21T19:23:14;101711.81;;;10.38;nan
70758;BME280;59316;52.964;7.102;2023-02-21T19:28:17;101717.22;;;10.33;nan
70758;BME280;59316;52.964;7.102;2023-02-21T19:33:19;101706.50;;;10.40;nan
70758;BME280;59316;52.964;7.102;2023-02-21T19:38:22;101716.13;;;10.39;nan
70758;BME280;59316;52.964;7.102;2023-02-21T19:43:25;101704.03;;;10.36;nan
70758;BME280;59316;52.964;7.102;2023-02-21T19:48:28;101706.69;;;10.35;nan
70758;BME280;59316;52.964;7.102;2023-02-21T19:53:30;101709.47;;;10.32;nan
70758;BME280;59316;52.964;7.102;2023-02-21T19:58:33;101690.31;;;10.31;nan
70758;BME280;59316;52.964;7.102;2023-02-21T20:03:36;101699.00;;;10.32;nan
70758;BME280;59316;52.964;7.102;2023-02-21T20:08:39;101697.19;;;10.34;nan
70758;BME280;59316;52.964;7.102;2023-02-21T20:13:41;101697.94;;;10.36;nan
70758;BME280;59316;52.964;7.102;2023-02-21T20:18:45;101695.97;;;10.41;nan
70758;BME280;59316;52.964;7.102;2023-02-21T20:23:49;101687.94;;;10.46;nan
70758;BME280;59316;52.964;7.102;2023-02-21T20:28:52;101677.53;;;10.44;nan
70758;BME280;59316;52.964;7.102;2023-02-21T20:33:55;101675.81;;;10.43;nan
70758;BME280;59316;52.964;7.102;2023-02-21T20:38:59;101676.09;;;10.37;nan
70758;BME280;59316;52.964;7.102;2023-02-21T20:44:02;101682.06;;;10.41;nan
70758;BME280;59316;52.964;7.102;2023-02-21T20:49:05;101675.97;;;10.40;nan
70758;BME280;59316;52.964;7.102;2023-02-21T20:54:08;101676.19;;;10.35;nan
70758;BME280;59316;52.964;7.102;2023-02-21T20:59:17;101675.28;;;10.36;nan
70758;BME280;59316;52.964;7.102;2023-02-21T21:04:23;101675.47;;;10.32;nan
70758;BME280;59316;52.964;7.102;2023-02-21T21:09:33;101671.03;;;10.34;nan
70758;BME280;59316;52.964;7.102;2023-02-21T21:14:38;101669.41;;;10.31;nan
70758;BME280;59316;52.964;7.102;2023-02-21T21:19:43;101678.91;;;10.32;nan
70758;BME280;59316;52.964;7.102;2023-02-21T21:24:46;101679.16;;;10.28;nan
70758;BME280;59316;52.964;7.102;2023-02-21T21:29:50;101670.44;;;10.27;nan
70758;BME280;59316;52.964;7.102;2023-02-21T21:34:55;101666.06;;;10.28;nan
70758;BME280;59316;52.964;7.102;2023-02-21T21:39:58;101666.19;;;10.25;nan
70758;BME280;59316;52.964;7.102;2023-02-21T21:45:01;101664.53;;;10.24;nan
70758;BME280;59316;52.964;7.102;2023-02-21T21:50:04;101664.56;;;10.22;nan
70758;BME280;59316;52.964;7.102;2023-02-21T21:55:07;101654.25;;;10.19;nan
70758;BME280;59316;52.964;7.102;2023-02-21T22:00:12;101658.56;;;10.20;nan
70758;BME280;59316;52.964;7.102;2023-02-21T22:05:15;101655.88;;;10.22;nan
70758;BME280;59316;52.964;7.102;2023-02-21T22:10:19;101650.72;;;10.20;nan
70758;BME280;59316;52.964;7.102;2023-02-21T22:15:23;101647.31;;;10.18;nan
70758;BME280;59316;52.964;7.102;2023-02-21T22:20:27;101642.25;;;10.15;nan
70758;BME280;59316;52.964;7.102;2023-02-21T22:25:31;101638.00;;;10.12;nan
70758;BME280;59316;52.964;7.102;2023-02-21T22:30:34;101632.78;;;10.12;nan
70758;BME280;59316;52.964;7.102;2023-02-21T22:35:38;101628.63;;;10.08;nan
70758;BME280;59316;52.964;7.102;2023-02-21T22:40:41;101630.28;;;10.09;nan
70758;BME280;59316;52.964;7.102;2023-02-21T22:45:44;101611.94;;;10.11;nan
70758;BME280;59316;52.964;7.102;2023-02-21T22:50:47;101620.78;;;10.08;nan
70758;BME280;59316;52.964;7.102;2023-02-21T22:55:50;101609.66;;;10.03;nan
70758;BME280;59316;52.964;7.102;2023-02-21T23:00:53;101609.63;;;10.04;nan
70758;BME280;59316;52.964;7.102;2023-02-21T23:05:56;101599.34;;;10.00;nan
70758;BME280;59316;52.964;7.102;2023-02-21T23:10:59;101594.97;;;10.00;nan
70758;BME280;59316;52.964;7.102;2023-02-21T23:16:02;101590.69;;;9.99;nan
70758;BME280;59316;52.964;7.102;2023-02-21T23:21:05;101586.47;;;9.95;nan
70758;BME280;59316;52.964;7.102;2023-02-21T23:26:07;101587.47;;;9.93;nan
70758;BME280;59316;52.964;7.102;2023-02-21T23:31:10;101572.84;;;9.88;nan
70758;BME280;59316;52.964;7.102;2023-02-21T23:36:14;101576.38;;;9.87;nan
70758;BME280;59316;52.964;7.102;2023-02-21T23:41:17;101572.84;;;9.88;nan
70758;BME280;59316;52.964;7.102;2023-02-21T23:46:21;101580.63;;;9.90;nan
70758;BME280;59316;52.964;7.102;2023-02-21T23:51:25;101574.56;;;9.90;nan
70758;BME280;59316;52.964;7.102;2023-02-21T23:56:28;101572.75;;;9.92;nan
